Impacts METAR Board
IDs:

KAUS - Austin/Bergstrom Int, TX, US

Updated at: 0200 UTC 15 Aug 2020
Potential Impact None Slight Moderate High
Time 14/14Z 14/15Z 14/16Z 14/17Z 14/18Z 14/19Z 14/20Z 14/21Z 14/22Z 14/23Z 15/00Z 15/01Z 15/02Z
Temp83 88 91 94 97 101 101 103 105 104 102 99 91
Dewpt74 72 71 69 66 63 63 61 61 61 61 62 63
Altim29.96 29.95 29.96 29.95 29.93 29.90 29.88 29.85 29.83 29.82 29.81 29.82 29.84
VIS10 10 10 10 10 10 10 10 10 10 10 10 10
CIG-- -- -- -- -- -- -- -- -- -- -- -- --
CoverFEWFEWFEWCLRCLRCLRCLRCLRCLRCLRCLRCLRFEW
FltCatVFRVFRVFRVFRVFRVFRVFRVFRVFRVFRVFRVFRVFR
WX--------------------------
WDir210220190200210190180210200160170160170
WSpd12 12 11 14 13 14 8 7 8 10 10 8 6
WGst18 21 -- 19 19 19 16 14 16 -- -- -- --
Raw hourly METARs
KAUS 141353Z 21012G18KT 10SM FEW013 28/23 A2996 RMK AO2 SLP132 T02830233
KAUS 141453Z 22012G21KT 10SM FEW013 31/22 A2995 RMK AO2 SLP130 T03110222 50006
KAUS 141553Z 19011KT 10SM FEW014 33/22 A2996 RMK AO2 SLP130 T03280217
KAUS 141653Z 20014G19KT 10SM CLR 34/21 A2995 RMK AO2 SLP127 T03440206
KAUS 141753Z 21013G19KT 10SM CLR 36/19 A2993 RMK AO2 SLP121 T03610189 10367 20261 58008
KAUS 141853Z 19014G19KT 10SM CLR 38/17 A2990 RMK AO2 SLP111 T03830172
KAUS 141953Z 18008G16KT 140V200 10SM CLR 38/17 A2988 RMK AO2 SLP103 T03830172
KAUS 142053Z 21007G14KT 10SM CLR 39/16 A2985 RMK AO2 SLP095 T03940161 56026
KAUS 142153Z 20008G16KT 10SM CLR 41/16 A2983 RMK AO2 SLP086 T04060161
KAUS 142253Z 16010KT 10SM CLR 40/16 A2982 RMK AO2 SLP082 T04000161
KAUS 142353Z 17010KT 10SM CLR 39/16 A2981 RMK AO2 SLP078 T03890161 10406 20361 56016
KAUS 150053Z 16008KT 10SM CLR 37/17 A2982 RMK AO2 SLP084 T03720167
KAUS 150153Z 17006KT 10SM FEW250 33/17 A2984 RMK AO2 SLP090 T03280172